sensor_id;sensor_type;location;lat;lon;timestamp;P1;durP1;ratioP1;P2;durP2;ratioP2
27746;SDS011;15138;51.012;4.692;2023-02-22T00:00:04;206.35;;;30.63;;
27746;SDS011;15138;51.012;4.692;2023-02-22T00:02:45;176.98;;;27.48;;
27746;SDS011;15138;51.012;4.692;2023-02-22T00:05:18;199.55;;;31.20;;
27746;SDS011;15138;51.012;4.692;2023-02-22T00:07:53;210.77;;;32.42;;
27746;SDS011;15138;51.012;4.692;2023-02-22T00:10:26;227.20;;;31.13;;
27746;SDS011;15138;51.012;4.692;2023-02-22T00:13:07;177.35;;;30.92;;
27746;SDS011;15138;51.012;4.692;2023-02-22T00:15:45;216.07;;;32.63;;
27746;SDS011;15138;51.012;4.692;2023-02-22T00:18:17;193.55;;;30.95;;
27746;SDS011;15138;51.012;4.692;2023-02-22T00:20:48;230.43;;;32.58;;
27746;SDS011;15138;51.012;4.692;2023-02-22T00:23:22;181.27;;;30.50;;
27746;SDS011;15138;51.012;4.692;2023-02-22T00:25:54;222.38;;;31.52;;
27746;SDS011;15138;51.012;4.692;2023-02-22T00:28:27;270.10;;;30.88;;
27746;SDS011;15138;51.012;4.692;2023-02-22T00:30:58;178.77;;;29.17;;
27746;SDS011;15138;51.012;4.692;2023-02-22T00:33:33;232.35;;;30.05;;
27746;SDS011;15138;51.012;4.692;2023-02-22T00:36:12;168.43;;;29.80;;
27746;SDS011;15138;51.012;4.692;2023-02-22T00:38:41;155.48;;;28.65;;
27746;SDS011;15138;51.012;4.692;2023-02-22T00:41:12;73.63;;;24.90;;
27746;SDS011;15138;51.012;4.692;2023-02-22T00:43:43;148.13;;;26.98;;
27746;SDS011;15138;51.012;4.692;2023-02-22T00:46:12;141.55;;;27.63;;
27746;SDS011;15138;51.012;4.692;2023-02-22T00:48:44;174.63;;;29.52;;
27746;SDS011;15138;51.012;4.692;2023-02-22T00:51:24;257.02;;;32.03;;
27746;SDS011;15138;51.012;4.692;2023-02-22T00:53:55;237.30;;;31.38;;
27746;SDS011;15138;51.012;4.692;2023-02-22T00:56:24;104.82;;;24.90;;
27746;SDS011;15138;51.012;4.692;2023-02-22T00:58:56;52.90;;;19.17;;
27746;SDS011;15138;51.012;4.692;2023-02-22T01:01:31;85.03;;;22.60;;
27746;SDS011;15138;51.012;4.692;2023-02-22T01:04:04;80.70;;;22.20;;
27746;SDS011;15138;51.012;4.692;2023-02-22T01:06:34;154.30;;;26.08;;
27746;SDS011;15138;51.012;4.692;2023-02-22T01:09:04;160.50;;;27.35;;
27746;SDS011;15138;51.012;4.692;2023-02-22T01:11:35;183.50;;;26.55;;
27746;SDS011;15138;51.012;4.692;2023-02-22T01:14:12;270.63;;;29.38;;
27746;SDS011;15138;51.012;4.692;2023-02-22T01:16:47;93.22;;;22.05;;
27746;SDS011;15138;51.012;4.692;2023-02-22T01:19:29;171.05;;;25.15;;
27746;SDS011;15138;51.012;4.692;2023-02-22T01:22:04;256.38;;;26.95;;
27746;SDS011;15138;51.012;4.692;2023-02-22T01:25:06;171.15;;;23.13;;
27746;SDS011;15138;51.012;4.692;2023-02-22T01:27:47;144.05;;;23.15;;
27746;SDS011;15138;51.012;4.692;2023-02-22T01:30:23;299.92;;;28.67;;
27746;SDS011;15138;51.012;4.692;2023-02-22T01:33:00;221.18;;;25.73;;
27746;SDS011;15138;51.012;4.692;2023-02-22T01:35:37;230.85;;;25.73;;
27746;SDS011;15138;51.012;4.692;2023-02-22T01:38:09;351.75;;;29.30;;
27746;SDS011;15138;51.012;4.692;2023-02-22T01:40:42;261.60;;;28.85;;
27746;SDS011;15138;51.012;4.692;2023-02-22T01:43:19;232.68;;;28.35;;
27746;SDS011;15138;51.012;4.692;2023-02-22T01:45:55;369.17;;;29.10;;
27746;SDS011;15138;51.012;4.692;2023-02-22T01:48:29;182.07;;;24.83;;
27746;SDS011;15138;51.012;4.692;2023-02-22T01:51:03;171.00;;;22.25;;
27746;SDS011;15138;51.012;4.692;2023-02-22T01:53:38;101.93;;;20.70;;
27746;SDS011;15138;51.012;4.692;2023-02-22T01:56:13;268.33;;;25.80;;
27746;SDS011;15138;51.012;4.692;2023-02-22T01:58:48;223.10;;;24.55;;
27746;SDS011;15138;51.012;4.692;2023-02-22T02:01:24;387.92;;;26.60;;
27746;SDS011;15138;51.012;4.692;2023-02-22T02:03:56;285.85;;;26.42;;
27746;SDS011;15138;51.012;4.692;2023-02-22T02:06:31;143.73;;;23.50;;
27746;SDS011;15138;51.012;4.692;2023-02-22T02:11:38;142.65;;;24.08;;
27746;SDS011;15138;51.012;4.692;2023-02-22T02:14:10;291.27;;;27.95;;
27746;SDS011;15138;51.012;4.692;2023-02-22T02:16:42;231.32;;;26.63;;
27746;SDS011;15138;51.012;4.692;2023-02-22T02:19:22;269.70;;;26.55;;
27746;SDS011;15138;51.012;4.692;2023-02-22T02:22:10;314.60;;;26.45;;
27746;SDS011;15138;51.012;4.692;2023-02-22T02:25:09;262.00;;;23.88;;
27746;SDS011;15138;51.012;4.692;2023-02-22T02:28:00;244.75;;;24.20;;
27746;SDS011;15138;51.012;4.692;2023-02-22T02:31:20;258.55;;;24.20;;
27746;SDS011;15138;51.012;4.692;2023-02-22T02:34:13;171.82;;;23.40;;
27746;SDS011;15138;51.012;4.692;2023-02-22T02:36:49;190.60;;;22.48;;
27746;SDS011;15138;51.012;4.692;2023-02-22T02:39:34;184.45;;;24.73;;
27746;SDS011;15138;51.012;4.692;2023-02-22T02:42:12;205.82;;;23.15;;
27746;SDS011;15138;51.012;4.692;2023-02-22T02:44:50;199.23;;;23.05;;
27746;SDS011;15138;51.012;4.692;2023-02-22T02:47:25;181.25;;;24.80;;
27746;SDS011;15138;51.012;4.692;2023-02-22T02:50:01;234.07;;;26.00;;
27746;SDS011;15138;51.012;4.692;2023-02-22T02:52:35;213.77;;;25.17;;
27746;SDS011;15138;51.012;4.692;2023-02-22T02:55:06;184.93;;;25.20;;
27746;SDS011;15138;51.012;4.692;2023-02-22T02:57:39;185.77;;;23.83;;
27746;SDS011;15138;51.012;4.692;2023-02-22T03:00:13;181.05;;;24.30;;
27746;SDS011;15138;51.012;4.692;2023-02-22T03:03:01;162.85;;;23.60;;
27746;SDS011;15138;51.012;4.692;2023-02-22T03:05:56;142.70;;;21.30;;
27746;SDS011;15138;51.012;4.692;2023-02-22T03:09:01;194.52;;;22.67;;
27746;SDS011;15138;51.012;4.692;2023-02-22T03:12:09;155.73;;;22.58;;
27746;SDS011;15138;51.012;4.692;2023-02-22T03:14:58;80.13;;;18.63;;
27746;SDS011;15138;51.012;4.692;2023-02-22T03:17:41;117.28;;;20.10;;
27746;SDS011;15138;51.012;4.692;2023-02-22T03:20:17;189.02;;;22.55;;
27746;SDS011;15138;51.012;4.692;2023-02-22T03:23:01;155.63;;;21.90;;
27746;SDS011;15138;51.012;4.692;2023-02-22T03:25:38;87.65;;;21.58;;
27746;SDS011;15138;51.012;4.692;2023-02-22T03:28:11;129.43;;;21.42;;
27746;SDS011;15138;51.012;4.692;2023-02-22T03:30:46;57.40;;;19.25;;
27746;SDS011;15138;51.012;4.692;2023-02-22T03:33:20;104.78;;;19.73;;
27746;SDS011;15138;51.012;4.692;2023-02-22T03:36:01;93.05;;;18.98;;
27746;SDS011;15138;51.012;4.692;2023-02-22T03:38:37;186.00;;;20.25;;
27746;SDS011;15138;51.012;4.692;2023-02-22T03:41:10;121.75;;;17.70;;
27746;SDS011;15138;51.012;4.692;2023-02-22T03:43:45;62.22;;;15.45;;
27746;SDS011;15138;51.012;4.692;2023-02-22T03:46:21;121.30;;;18.73;;
27746;SDS011;15138;51.012;4.692;2023-02-22T03:48:53;89.68;;;18.33;;
27746;SDS011;15138;51.012;4.692;2023-02-22T03:51:29;105.10;;;17.27;;
27746;SDS011;15138;51.012;4.692;2023-02-22T03:54:02;99.05;;;18.35;;
27746;SDS011;15138;51.012;4.692;2023-02-22T03:56:33;117.72;;;17.60;;
27746;SDS011;15138;51.012;4.692;2023-02-22T03:59:13;79.25;;;16.63;;
27746;SDS011;15138;51.012;4.692;2023-02-22T04:01:44;79.43;;;16.67;;
27746;SDS011;15138;51.012;4.692;2023-02-22T04:04:17;85.95;;;17.27;;
27746;SDS011;15138;51.012;4.692;2023-02-22T04:06:49;56.03;;;16.13;;
27746;SDS011;15138;51.012;4.692;2023-02-22T04:09:21;54.78;;;17.58;;
27746;SDS011;15138;51.012;4.692;2023-02-22T04:11:51;42.42;;;14.93;;
27746;SDS011;15138;51.012;4.692;2023-02-22T04:14:21;36.70;;;14.93;;
27746;SDS011;15138;51.012;4.692;2023-02-22T04:16:52;79.32;;;15.80;;
27746;SDS011;15138;51.012;4.692;2023-02-22T04:19:23;82.57;;;16.92;;
27746;SDS011;15138;51.012;4.692;2023-02-22T04:21:57;56.83;;;16.40;;
27746;SDS011;15138;51.012;4.692;2023-02-22T04:24:29;66.72;;;17.38;;
27746;SDS011;15138;51.012;4.692;2023-02-22T04:26:59;59.45;;;17.27;;
27746;SDS011;15138;51.012;4.692;2023-02-22T04:29:30;51.95;;;17.48;;
27746;SDS011;15138;51.012;4.692;2023-02-22T04:32:03;42.92;;;16.25;;
27746;SDS011;15138;51.012;4.692;2023-02-22T04:34:33;40.70;;;16.40;;
27746;SDS011;15138;51.012;4.692;2023-02-22T04:37:04;36.60;;;15.30;;
27746;SDS011;15138;51.012;4.692;2023-02-22T04:39:38;56.40;;;17.20;;
27746;SDS011;15138;51.012;4.692;2023-02-22T04:42:10;38.75;;;15.93;;
27746;SDS011;15138;51.012;4.692;2023-02-22T04:44:41;43.85;;;15.38;;
27746;SDS011;15138;51.012;4.692;2023-02-22T04:47:12;34.03;;;16.10;;
27746;SDS011;15138;51.012;4.692;2023-02-22T04:49:41;20.50;;;12.75;;
27746;SDS011;15138;51.012;4.692;2023-02-22T04:52:11;36.75;;;15.70;;
27746;SDS011;15138;51.012;4.692;2023-02-22T04:54:43;25.55;;;13.57;;
27746;SDS011;15138;51.012;4.692;2023-02-22T04:57:14;26.73;;;14.77;;
27746;SDS011;15138;51.012;4.692;2023-02-22T04:59:43;32.10;;;13.77;;
27746;SDS011;15138;51.012;4.692;2023-02-22T05:02:13;21.38;;;12.60;;
27746;SDS011;15138;51.012;4.692;2023-02-22T05:04:43;23.33;;;13.70;;
27746;SDS011;15138;51.012;4.692;2023-02-22T05:07:12;25.70;;;13.27;;
27746;SDS011;15138;51.012;4.692;2023-02-22T05:09:42;26.55;;;13.75;;
27746;SDS011;15138;51.012;4.692;2023-02-22T05:12:15;27.33;;;14.70;;
27746;SDS011;15138;51.012;4.692;2023-02-22T05:14:45;24.02;;;14.45;;
27746;SDS011;15138;51.012;4.692;2023-02-22T05:17:13;23.13;;;14.02;;
27746;SDS011;15138;51.012;4.692;2023-02-22T05:19:42;19.42;;;12.15;;
27746;SDS011;15138;51.012;4.692;2023-02-22T05:22:10;33.78;;;15.85;;
27746;SDS011;15138;51.012;4.692;2023-02-22T05:24:39;25.25;;;14.80;;
27746;SDS011;15138;51.012;4.692;2023-02-22T05:27:10;24.35;;;14.80;;
27746;SDS011;15138;51.012;4.692;2023-02-22T05:29:39;27.27;;;15.48;;
27746;SDS011;15138;51.012;4.692;2023-02-22T05:32:08;22.52;;;14.30;;
27746;SDS011;15138;51.012;4.692;2023-02-22T05:34:37;22.08;;;13.40;;
27746;SDS011;15138;51.012;4.692;2023-02-22T05:37:06;20.25;;;13.27;;
27746;SDS011;15138;51.012;4.692;2023-02-22T05:39:35;20.52;;;12.85;;
27746;SDS011;15138;51.012;4.692;2023-02-22T05:42:03;24.58;;;15.05;;
27746;SDS011;15138;51.012;4.692;2023-02-22T05:44:33;24.65;;;14.85;;
27746;SDS011;15138;51.012;4.692;2023-02-22T05:47:02;22.92;;;13.90;;
27746;SDS011;15138;51.012;4.692;2023-02-22T05:49:30;23.50;;;13.35;;
27746;SDS011;15138;51.012;4.692;2023-02-22T05:51:59;23.55;;;13.35;;
27746;SDS011;15138;51.012;4.692;2023-02-22T05:54:27;22.45;;;13.73;;
27746;SDS011;15138;51.012;4.692;2023-02-22T05:56:56;23.05;;;13.15;;
27746;SDS011;15138;51.012;4.692;2023-02-22T05:59:25;20.73;;;12.05;;
27746;SDS011;15138;51.012;4.692;2023-02-22T06:02:02;24.92;;;14.73;;
27746;SDS011;15138;51.012;4.692;2023-02-22T06:04:38;17.73;;;11.23;;
27746;SDS011;15138;51.012;4.692;2023-02-22T06:07:12;22.30;;;13.55;;
27746;SDS011;15138;51.012;4.692;2023-02-22T06:09:41;22.30;;;14.20;;
27746;SDS011;15138;51.012;4.692;2023-02-22T06:12:12;22.45;;;14.18;;
27746;SDS011;15138;51.012;4.692;2023-02-22T06:14:42;25.25;;;13.77;;
27746;SDS011;15138;51.012;4.692;2023-02-22T06:17:15;17.48;;;11.23;;
27746;SDS011;15138;51.012;4.692;2023-02-22T06:19:47;19.55;;;11.98;;
27746;SDS011;15138;51.012;4.692;2023-02-22T06:22:17;15.00;;;9.40;;
27746;SDS011;15138;51.012;4.692;2023-02-22T06:24:48;21.50;;;12.00;;
27746;SDS011;15138;51.012;4.692;2023-02-22T06:27:20;16.95;;;11.30;;
27746;SDS011;15138;51.012;4.692;2023-02-22T06:29:50;16.85;;;10.48;;
27746;SDS011;15138;51.012;4.692;2023-02-22T06:32:24;22.15;;;11.90;;
27746;SDS011;15138;51.012;4.692;2023-02-22T06:34:55;19.90;;;12.40;;
27746;SDS011;15138;51.012;4.692;2023-02-22T06:37:24;20.17;;;12.90;;
27746;SDS011;15138;51.012;4.692;2023-02-22T06:39:55;15.60;;;10.75;;
27746;SDS011;15138;51.012;4.692;2023-02-22T06:42:30;16.65;;;9.68;;
27746;SDS011;15138;51.012;4.692;2023-02-22T06:45:02;20.52;;;12.18;;
27746;SDS011;15138;51.012;4.692;2023-02-22T06:47:34;17.05;;;10.75;;
27746;SDS011;15138;51.012;4.692;2023-02-22T06:52:52;17.50;;;11.00;;
27746;SDS011;15138;51.012;4.692;2023-02-22T06:55:27;36.95;;;18.55;;
27746;SDS011;15138;51.012;4.692;2023-02-22T06:58:03;19.80;;;11.27;;
27746;SDS011;15138;51.012;4.692;2023-02-22T07:00:36;18.65;;;11.80;;
27746;SDS011;15138;51.012;4.692;2023-02-22T07:03:12;19.17;;;9.93;;
27746;SDS011;15138;51.012;4.692;2023-02-22T07:05:42;17.90;;;11.17;;
27746;SDS011;15138;51.012;4.692;2023-02-22T07:08:11;20.30;;;11.50;;
27746;SDS011;15138;51.012;4.692;2023-02-22T07:10:42;18.58;;;10.85;;
27746;SDS011;15138;51.012;4.692;2023-02-22T07:13:10;15.98;;;9.13;;
27746;SDS011;15138;51.012;4.692;2023-02-22T07:15:40;17.52;;;11.07;;
27746;SDS011;15138;51.012;4.692;2023-02-22T07:18:12;15.52;;;10.10;;
27746;SDS011;15138;51.012;4.692;2023-02-22T07:20:41;17.05;;;10.48;;
27746;SDS011;15138;51.012;4.692;2023-02-22T07:23:12;17.83;;;11.52;;
27746;SDS011;15138;51.012;4.692;2023-02-22T07:25:41;19.90;;;12.95;;
27746;SDS011;15138;51.012;4.692;2023-02-22T07:28:11;18.10;;;10.95;;
27746;SDS011;15138;51.012;4.692;2023-02-22T07:30:40;14.10;;;9.43;;
27746;SDS011;15138;51.012;4.692;2023-02-22T07:33:15;15.13;;;9.90;;
27746;SDS011;15138;51.012;4.692;2023-02-22T07:35:44;15.10;;;9.23;;
27746;SDS011;15138;51.012;4.692;2023-02-22T07:38:15;12.82;;;8.45;;
27746;SDS011;15138;51.012;4.692;2023-02-22T07:40:46;14.43;;;9.55;;
27746;SDS011;15138;51.012;4.692;2023-02-22T07:43:17;14.75;;;9.43;;
27746;SDS011;15138;51.012;4.692;2023-02-22T07:45:47;17.00;;;10.70;;
27746;SDS011;15138;51.012;4.692;2023-02-22T07:48:19;17.88;;;10.95;;
27746;SDS011;15138;51.012;4.692;2023-02-22T07:50:50;16.98;;;10.15;;
27746;SDS011;15138;51.012;4.692;2023-02-22T07:53:19;19.20;;;11.27;;
27746;SDS011;15138;51.012;4.692;2023-02-22T07:55:50;15.95;;;10.55;;
27746;SDS011;15138;51.012;4.692;2023-02-22T07:58:20;18.90;;;11.18;;
27746;SDS011;15138;51.012;4.692;2023-02-22T08:00:50;14.85;;;8.95;;
27746;SDS011;15138;51.012;4.692;2023-02-22T08:03:22;18.80;;;11.35;;
27746;SDS011;15138;51.012;4.692;2023-02-22T08:05:52;17.63;;;11.77;;
27746;SDS011;15138;51.012;4.692;2023-02-22T08:08:23;21.08;;;12.88;;
27746;SDS011;15138;51.012;4.692;2023-02-22T08:10:51;19.45;;;10.98;;
27746;SDS011;15138;51.012;4.692;2023-02-22T08:13:21;19.75;;;12.75;;
27746;SDS011;15138;51.012;4.692;2023-02-22T08:15:56;17.65;;;10.63;;
27746;SDS011;15138;51.012;4.692;2023-02-22T08:18:30;20.15;;;11.48;;
27746;SDS011;15138;51.012;4.692;2023-02-22T08:21:03;24.20;;;13.77;;
27746;SDS011;15138;51.012;4.692;2023-02-22T08:23:42;21.65;;;13.95;;
27746;SDS011;15138;51.012;4.692;2023-02-22T08:26:14;21.88;;;13.48;;
27746;SDS011;15138;51.012;4.692;2023-02-22T08:28:44;21.15;;;13.13;;
27746;SDS011;15138;51.012;4.692;2023-02-22T08:31:19;23.35;;;14.00;;
27746;SDS011;15138;51.012;4.692;2023-02-22T08:34:05;22.10;;;13.57;;
27746;SDS011;15138;51.012;4.692;2023-02-22T08:36:34;18.83;;;12.15;;
27746;SDS011;15138;51.012;4.692;2023-02-22T08:39:14;19.42;;;12.05;;
27746;SDS011;15138;51.012;4.692;2023-02-22T08:41:43;21.15;;;13.27;;
27746;SDS011;15138;51.012;4.692;2023-02-22T08:44:21;20.58;;;13.40;;
27746;SDS011;15138;51.012;4.692;2023-02-22T08:47:22;21.83;;;13.68;;
27746;SDS011;15138;51.012;4.692;2023-02-22T08:50:04;21.42;;;13.15;;
27746;SDS011;15138;51.012;4.692;2023-02-22T08:52:34;22.65;;;14.32;;
27746;SDS011;15138;51.012;4.692;2023-02-22T08:55:27;20.83;;;13.82;;
27746;SDS011;15138;51.012;4.692;2023-02-22T08:58:04;26.30;;;12.27;;
27746;SDS011;15138;51.012;4.692;2023-02-22T09:00:38;25.75;;;14.85;;
27746;SDS011;15138;51.012;4.692;2023-02-22T09:03:11;23.20;;;14.32;;
27746;SDS011;15138;51.012;4.692;2023-02-22T09:05:43;23.52;;;14.60;;
27746;SDS011;15138;51.012;4.692;2023-02-22T09:08:14;26.85;;;15.82;;
27746;SDS011;15138;51.012;4.692;2023-02-22T09:10:43;30.98;;;13.95;;
27746;SDS011;15138;51.012;4.692;2023-02-22T09:13:13;26.52;;;14.60;;
27746;SDS011;15138;51.012;4.692;2023-02-22T09:15:42;23.02;;;13.77;;
27746;SDS011;15138;51.012;4.692;2023-02-22T09:18:14;21.95;;;13.32;;
27746;SDS011;15138;51.012;4.692;2023-02-22T09:20:45;24.45;;;12.73;;
27746;SDS011;15138;51.012;4.692;2023-02-22T09:23:15;22.48;;;13.80;;
27746;SDS011;15138;51.012;4.692;2023-02-22T09:25:46;26.67;;;13.82;;
27746;SDS011;15138;51.012;4.692;2023-02-22T09:28:23;25.88;;;14.77;;
27746;SDS011;15138;51.012;4.692;2023-02-22T09:30:54;28.40;;;13.20;;
27746;SDS011;15138;51.012;4.692;2023-02-22T09:33:39;22.13;;;12.63;;
27746;SDS011;15138;51.012;4.692;2023-02-22T09:39:00;27.27;;;13.80;;
27746;SDS011;15138;51.012;4.692;2023-02-22T09:41:31;21.13;;;12.88;;
27746;SDS011;15138;51.012;4.692;2023-02-22T09:44:10;21.30;;;12.00;;
27746;SDS011;15138;51.012;4.692;2023-02-22T09:46:47;24.88;;;14.15;;
27746;SDS011;15138;51.012;4.692;2023-02-22T09:49:22;68.43;;;30.65;;
27746;SDS011;15138;51.012;4.692;2023-02-22T09:51:58;25.33;;;12.55;;
27746;SDS011;15138;51.012;4.692;2023-02-22T09:54:32;30.10;;;12.50;;
27746;SDS011;15138;51.012;4.692;2023-02-22T09:57:13;25.15;;;12.90;;
27746;SDS011;15138;51.012;4.692;2023-02-22T09:59:56;27.02;;;13.68;;
27746;SDS011;15138;51.012;4.692;2023-02-22T10:02:42;24.15;;;12.90;;
27746;SDS011;15138;51.012;4.692;2023-02-22T10:05:23;24.58;;;14.13;;
27746;SDS011;15138;51.012;4.692;2023-02-22T10:08:02;29.20;;;15.02;;
27746;SDS011;15138;51.012;4.692;2023-02-22T10:10:33;29.13;;;14.75;;
27746;SDS011;15138;51.012;4.692;2023-02-22T10:13:08;24.58;;;13.68;;
27746;SDS011;15138;51.012;4.692;2023-02-22T10:15:44;25.45;;;15.18;;
27746;SDS011;15138;51.012;4.692;2023-02-22T10:21:40;29.88;;;15.65;;
27746;SDS011;15138;51.012;4.692;2023-02-22T10:24:30;28.55;;;15.57;;
27746;SDS011;15138;51.012;4.692;2023-02-22T10:27:07;28.85;;;15.63;;
27746;SDS011;15138;51.012;4.692;2023-02-22T10:29:55;28.52;;;15.55;;
27746;SDS011;15138;51.012;4.692;2023-02-22T10:32:51;29.45;;;15.70;;
27746;SDS011;15138;51.012;4.692;2023-02-22T10:35:26;30.33;;;16.90;;
27746;SDS011;15138;51.012;4.692;2023-02-22T10:37:57;31.55;;;16.90;;
27746;SDS011;15138;51.012;4.692;2023-02-22T10:40:32;32.75;;;18.67;;
27746;SDS011;15138;51.012;4.692;2023-02-22T10:43:02;37.50;;;17.27;;
27746;SDS011;15138;51.012;4.692;2023-02-22T10:45:33;34.88;;;16.83;;
27746;SDS011;15138;51.012;4.692;2023-02-22T10:48:04;30.83;;;17.50;;
27746;SDS011;15138;51.012;4.692;2023-02-22T10:50:38;34.05;;;18.17;;
27746;SDS011;15138;51.012;4.692;2023-02-22T10:53:11;32.85;;;17.70;;
27746;SDS011;15138;51.012;4.692;2023-02-22T10:56:10;33.15;;;17.55;;
27746;SDS011;15138;51.012;4.692;2023-02-22T10:58:48;32.60;;;17.45;;
27746;SDS011;15138;51.012;4.692;2023-02-22T11:01:26;31.92;;;17.48;;
27746;SDS011;15138;51.012;4.692;2023-02-22T11:04:05;39.28;;;18.77;;
27746;SDS011;15138;51.012;4.692;2023-02-22T11:06:39;31.63;;;17.52;;
27746;SDS011;15138;51.012;4.692;2023-02-22T11:09:10;28.88;;;16.75;;
27746;SDS011;15138;51.012;4.692;2023-02-22T11:11:46;36.72;;;17.95;;
27746;SDS011;15138;51.012;4.692;2023-02-22T11:14:24;36.08;;;18.05;;
27746;SDS011;15138;51.012;4.692;2023-02-22T11:16:54;33.80;;;18.00;;
27746;SDS011;15138;51.012;4.692;2023-02-22T11:19:30;29.10;;;16.45;;
27746;SDS011;15138;51.012;4.692;2023-02-22T11:22:11;32.08;;;17.85;;
27746;SDS011;15138;51.012;4.692;2023-02-22T11:24:50;30.17;;;16.95;;
27746;SDS011;15138;51.012;4.692;2023-02-22T11:27:27;30.75;;;16.23;;
27746;SDS011;15138;51.012;4.692;2023-02-22T11:30:09;30.05;;;17.92;;
27746;SDS011;15138;51.012;4.692;2023-02-22T11:32:48;31.45;;;16.70;;
27746;SDS011;15138;51.012;4.692;2023-02-22T11:35:35;34.80;;;17.70;;
27746;SDS011;15138;51.012;4.692;2023-02-22T11:38:12;31.10;;;16.23;;
27746;SDS011;15138;51.012;4.692;2023-02-22T11:40:45;33.55;;;17.60;;
27746;SDS011;15138;51.012;4.692;2023-02-22T11:43:17;37.50;;;17.67;;
27746;SDS011;15138;51.012;4.692;2023-02-22T11:45:54;37.28;;;18.55;;
27746;SDS011;15138;51.012;4.692;2023-02-22T11:48:29;32.45;;;18.20;;
27746;SDS011;15138;51.012;4.692;2023-02-22T11:51:08;37.05;;;17.92;;
27746;SDS011;15138;51.012;4.692;2023-02-22T11:53:52;32.17;;;15.98;;
27746;SDS011;15138;51.012;4.692;2023-02-22T11:57:29;34.95;;;17.38;;
27746;SDS011;15138;51.012;4.692;2023-02-22T12:00:26;33.30;;;16.42;;
27746;SDS011;15138;51.012;4.692;2023-02-22T12:03:20;31.65;;;18.23;;
27746;SDS011;15138;51.012;4.692;2023-02-22T12:06:08;35.45;;;18.45;;
27746;SDS011;15138;51.012;4.692;2023-02-22T12:08:57;31.42;;;18.35;;
27746;SDS011;15138;51.012;4.692;2023-02-22T12:11:37;34.03;;;18.00;;
27746;SDS011;15138;51.012;4.692;2023-02-22T12:14:19;32.60;;;17.58;;
27746;SDS011;15138;51.012;4.692;2023-02-22T12:17:02;40.13;;;20.45;;
27746;SDS011;15138;51.012;4.692;2023-02-22T12:19:50;33.50;;;18.27;;
27746;SDS011;15138;51.012;4.692;2023-02-22T12:22:26;33.63;;;19.08;;
27746;SDS011;15138;51.012;4.692;2023-02-22T12:25:12;42.72;;;21.85;;
27746;SDS011;15138;51.012;4.692;2023-02-22T12:27:47;34.67;;;19.02;;
27746;SDS011;15138;51.012;4.692;2023-02-22T12:30:22;39.45;;;19.35;;
27746;SDS011;15138;51.012;4.692;2023-02-22T12:32:56;35.85;;;20.27;;
27746;SDS011;15138;51.012;4.692;2023-02-22T12:35:33;41.95;;;22.55;;
27746;SDS011;15138;51.012;4.692;2023-02-22T12:38:08;34.50;;;19.65;;
27746;SDS011;15138;51.012;4.692;2023-02-22T12:40:45;28.33;;;15.38;;
27746;SDS011;15138;51.012;4.692;2023-02-22T12:43:21;33.97;;;19.08;;
27746;SDS011;15138;51.012;4.692;2023-02-22T12:45:59;30.92;;;18.88;;
27746;SDS011;15138;51.012;4.692;2023-02-22T12:48:43;35.45;;;18.10;;
27746;SDS011;15138;51.012;4.692;2023-02-22T12:51:22;37.53;;;17.65;;
27746;SDS011;15138;51.012;4.692;2023-02-22T12:54:05;31.38;;;18.20;;
27746;SDS011;15138;51.012;4.692;2023-02-22T12:56:42;36.08;;;18.63;;
27746;SDS011;15138;51.012;4.692;2023-02-22T12:59:18;37.67;;;20.77;;
27746;SDS011;15138;51.012;4.692;2023-02-22T13:01:53;35.45;;;22.08;;
27746;SDS011;15138;51.012;4.692;2023-02-22T13:04:28;37.65;;;21.40;;
27746;SDS011;15138;51.012;4.692;2023-02-22T13:07:04;45.00;;;24.40;;
27746;SDS011;15138;51.012;4.692;2023-02-22T13:12:58;44.75;;;26.77;;
27746;SDS011;15138;51.012;4.692;2023-02-22T13:15:38;44.65;;;26.08;;
27746;SDS011;15138;51.012;4.692;2023-02-22T13:18:27;48.58;;;29.90;;
27746;SDS011;15138;51.012;4.692;2023-02-22T13:21:08;42.22;;;24.38;;
27746;SDS011;15138;51.012;4.692;2023-02-22T13:23:51;57.00;;;30.38;;
27746;SDS011;15138;51.012;4.692;2023-02-22T13:26:57;53.50;;;32.05;;
27746;SDS011;15138;51.012;4.692;2023-02-22T13:29:43;52.28;;;31.85;;
27746;SDS011;15138;51.012;4.692;2023-02-22T13:32:33;50.47;;;30.63;;
27746;SDS011;15138;51.012;4.692;2023-02-22T13:35:23;56.13;;;33.10;;
27746;SDS011;15138;51.012;4.692;2023-02-22T13:44:25;57.75;;;32.13;;
27746;SDS011;15138;51.012;4.692;2023-02-22T13:47:33;55.58;;;33.88;;
27746;SDS011;15138;51.012;4.692;2023-02-22T13:53:46;52.17;;;31.40;;
27746;SDS011;15138;51.012;4.692;2023-02-22T13:56:22;47.67;;;29.40;;
27746;SDS011;15138;51.012;4.692;2023-02-22T13:59:20;40.17;;;26.45;;
27746;SDS011;15138;51.012;4.692;2023-02-22T14:01:52;55.03;;;31.70;;
27746;SDS011;15138;51.012;4.692;2023-02-22T14:10:33;45.03;;;27.52;;
27746;SDS011;15138;51.012;4.692;2023-02-22T14:13:05;55.72;;;33.72;;
27746;SDS011;15138;51.012;4.692;2023-02-22T14:15:35;51.40;;;28.02;;
27746;SDS011;15138;51.012;4.692;2023-02-22T14:18:27;53.45;;;32.67;;
27746;SDS011;15138;51.012;4.692;2023-02-22T14:21:03;55.60;;;33.13;;
27746;SDS011;15138;51.012;4.692;2023-02-22T14:23:34;53.90;;;33.60;;
27746;SDS011;15138;51.012;4.692;2023-02-22T14:26:11;41.72;;;26.77;;
27746;SDS011;15138;51.012;4.692;2023-02-22T14:28:49;54.08;;;36.20;;
27746;SDS011;15138;51.012;4.692;2023-02-22T14:31:25;50.33;;;32.00;;
27746;SDS011;15138;51.012;4.692;2023-02-22T14:34:06;55.22;;;31.90;;
27746;SDS011;15138;51.012;4.692;2023-02-22T14:36:47;50.85;;;32.10;;
27746;SDS011;15138;51.012;4.692;2023-02-22T14:39:24;58.22;;;34.75;;
27746;SDS011;15138;51.012;4.692;2023-02-22T14:42:03;46.42;;;28.10;;
27746;SDS011;15138;51.012;4.692;2023-02-22T14:44:42;49.50;;;33.17;;
27746;SDS011;15138;51.012;4.692;2023-02-22T14:47:27;59.40;;;35.38;;
27746;SDS011;15138;51.012;4.692;2023-02-22T14:50:00;43.25;;;23.95;;
27746;SDS011;15138;51.012;4.692;2023-02-22T14:52:35;53.90;;;34.28;;
27746;SDS011;15138;51.012;4.692;2023-02-22T14:55:21;46.63;;;28.95;;
27746;SDS011;15138;51.012;4.692;2023-02-22T14:58:01;44.20;;;26.30;;
27746;SDS011;15138;51.012;4.692;2023-02-22T15:00:50;61.13;;;34.63;;
27746;SDS011;15138;51.012;4.692;2023-02-22T15:03:28;58.72;;;36.15;;
27746;SDS011;15138;51.012;4.692;2023-02-22T15:06:05;56.90;;;35.50;;
27746;SDS011;15138;51.012;4.692;2023-02-22T15:08:37;57.80;;;35.15;;
27746;SDS011;15138;51.012;4.692;2023-02-22T15:11:21;54.35;;;33.22;;
27746;SDS011;15138;51.012;4.692;2023-02-22T15:14:01;52.42;;;32.22;;
27746;SDS011;15138;51.012;4.692;2023-02-22T15:16:52;64.90;;;36.88;;
27746;SDS011;15138;51.012;4.692;2023-02-22T15:19:24;51.42;;;31.70;;
27746;SDS011;15138;51.012;4.692;2023-02-22T15:21:57;46.97;;;30.30;;
27746;SDS011;15138;51.012;4.692;2023-02-22T15:24:35;51.03;;;32.80;;
27746;SDS011;15138;51.012;4.692;2023-02-22T15:27:06;62.10;;;35.08;;
27746;SDS011;15138;51.012;4.692;2023-02-22T15:29:42;44.00;;;26.20;;
27746;SDS011;15138;51.012;4.692;2023-02-22T15:32:18;63.63;;;37.30;;
27746;SDS011;15138;51.012;4.692;2023-02-22T15:35:04;59.83;;;34.50;;
27746;SDS011;15138;51.012;4.692;2023-02-22T15:37:56;49.08;;;30.75;;
27746;SDS011;15138;51.012;4.692;2023-02-22T15:40:28;55.60;;;33.17;;